Time;durP1;ratioP1;P1;durP2;ratioP2;P2;SDS_P1;SDS_P2;PMS_P1;PMS_P2;Temp;Humidity;BMP_temperature;BMP_pressure;BME280_temperature;BME280_humidity;BME280_pressure;Samples;Min_cycle;Max_cycle;Signal;HPM_P1;HPM_P2
2024/01/22 00:00:10;;;;;;;11.30;4.80;;;;;;;4.52;100.00;100561.66;4942894;29;20725;-45
2024/01/22 00:02:38;;;;;;;11.82;5.00;;;;;;;4.41;100.00;100535.31;4942616;29;20553;-44
2024/01/22 00:05:04;;;;;;;10.63;4.60;;;;;;;4.38;100.00;100515.94;4947501;29;20306;-44
2024/01/22 00:07:29;;;;;;;13.45;5.43;;;;;;;4.31;100.00;100494.84;4944277;29;20214;-44
2024/01/22 00:09:55;;;;;;;12.38;5.38;;;;;;;4.30;100.00;100497.50;4940571;29;20172;-44
2024/01/22 00:12:20;;;;;;;11.35;5.15;;;;;;;4.27;100.00;100490.50;4943260;29;20179;-46
2024/01/22 00:14:47;;;;;;;13.75;5.25;;;;;;;4.24;100.00;100468.44;4944339;29;20222;-46
2024/01/22 00:17:13;;;;;;;11.40;5.75;;;;;;;4.20;100.00;100453.50;4943483;29;20665;-46
2024/01/22 00:19:38;;;;;;;9.27;5.47;;;;;;;4.18;100.00;100420.84;4943327;28;20206;-44
2024/01/22 00:22:04;;;;;;;12.25;5.68;;;;;;;4.09;100.00;100409.50;4940790;29;20183;-46
2024/01/22 00:24:29;;;;;;;18.58;6.00;;;;;;;4.03;100.00;100391.06;4945247;29;20305;-43
2024/01/22 00:26:55;;;;;;;12.30;5.75;;;;;;;4.03;100.00;100392.84;4944259;29;20245;-45
2024/01/22 00:29:20;;;;;;;10.48;6.20;;;;;;;3.98;100.00;100369.06;4946546;29;20190;-43
2024/01/22 00:31:46;;;;;;;8.77;5.70;;;;;;;4.02;100.00;100356.63;4944809;29;20203;-45
2024/01/22 00:34:12;;;;;;;11.07;5.53;;;;;;;4.03;100.00;100321.28;4944069;29;20579;-45
2024/01/22 00:36:37;;;;;;;15.55;5.50;;;;;;;4.08;100.00;100330.00;4945013;29;20572;-43
2024/01/22 00:39:02;;;;;;;10.05;6.05;;;;;;;4.07;100.00;100310.56;4948058;29;20633;-45
2024/01/22 00:41:28;;;;;;;12.15;5.60;;;;;;;4.09;100.00;100319.38;4941259;29;20270;-41
2024/01/22 00:43:53;;;;;;;9.05;5.45;;;;;;;4.11;100.00;100296.34;4953063;23;20281;-45
2024/01/22 00:46:19;;;;;;;12.63;5.38;;;;;;;4.09;100.00;100294.66;4963173;28;20193;-45
2024/01/22 00:48:44;;;;;;;15.07;5.65;;;;;;;4.09;100.00;100278.75;4963401;28;20171;-45
2024/01/22 00:51:10;;;;;;;12.38;5.80;;;;;;;4.07;100.00;100264.66;4959666;28;20711;-44
2024/01/22 00:53:35;;;;;;;11.95;5.22;;;;;;;4.15;100.00;100275.06;4967131;28;20654;-43
2024/01/22 00:56:01;;;;;;;12.60;5.88;;;;;;;4.16;100.00;100275.06;4962124;28;20194;-44
2024/01/22 00:58:26;;;;;;;9.45;5.07;;;;;;;4.20;100.00;100271.44;4960569;28;20740;-46
2024/01/22 01:00:52;;;;;;;9.65;4.80;;;;;;;4.24;100.00;100270.47;4957356;28;20190;-46
2024/01/22 01:03:17;;;;;;;10.95;5.18;;;;;;;4.27;100.00;100264.22;4963323;28;20638;-46
2024/01/22 01:05:43;;;;;;;8.73;4.68;;;;;;;4.36;100.00;100269.31;4960604;28;20205;-44
2024/01/22 01:08:08;;;;;;;10.55;5.00;;;;;;;4.34;100.00;100247.25;4958190;28;20192;-44
2024/01/22 01:10:34;;;;;;;10.20;4.70;;;;;;;4.36;100.00;100234.84;4959919;28;20694;-44
2024/01/22 01:12:59;;;;;;;7.90;4.63;;;;;;;4.45;100.00;100260.28;4960026;28;20676;-45
2024/01/22 01:15:25;;;;;;;11.90;4.80;;;;;;;4.43;100.00;100255.00;4961837;28;20197;-45
2024/01/22 01:17:50;;;;;;;7.65;4.38;;;;;;;4.51;100.00;100238.94;4964869;28;20631;-41
2024/01/22 01:20:16;;;;;;;7.88;4.65;;;;;;;4.43;100.00;100257.66;4961168;28;20285;-46
2024/01/22 01:22:41;;;;;;;6.65;4.20;;;;;;;4.46;100.00;100224.88;4961335;28;20166;-46
2024/01/22 01:25:07;;;;;;;9.20;4.70;;;;;;;4.45;100.00;100178.94;4958362;28;20212;-45
2024/01/22 01:27:33;;;;;;;11.20;4.82;;;;;;;4.58;100.00;100160.06;4957710;28;20268;-46
2024/01/22 01:29:59;;;;;;;9.75;4.38;;;;;;;4.52;100.00;100191.13;4956943;28;20551;-46
2024/01/22 01:32:24;;;;;;;14.15;4.80;;;;;;;4.58;100.00;100168.91;4960799;28;20272;-45
2024/01/22 01:34:50;;;;;;;9.15;4.20;;;;;;;4.58;100.00;100160.06;4958977;28;20705;-46
2024/01/22 01:37:15;;;;;;;8.63;4.38;;;;;;;4.58;100.00;100165.38;4960188;28;20190;-44
2024/01/22 01:39:41;;;;;;;7.65;4.50;;;;;;;4.61;100.00;100141.41;4960927;28;20584;-46
2024/01/22 01:42:07;;;;;;;9.10;4.32;;;;;;;4.63;100.00;100148.41;4962718;28;20202;-46
2024/01/22 01:44:38;;;;;;;7.60;4.10;;;;;;;4.64;100.00;100122.78;4963979;28;20190;-45
2024/01/22 01:47:04;;;;;;;7.47;3.88;;;;;;;4.68;100.00;100143.00;4968908;28;20175;-45
2024/01/22 01:49:30;;;;;;;10.07;4.72;;;;;;;4.69;100.00;100137.66;4963330;28;20190;-46
2024/01/22 01:51:57;;;;;;;5.35;3.80;;;;;;;4.73;100.00;100106.63;4958371;28;20422;-45
2024/01/22 01:54:24;;;;;;;5.68;3.92;;;;;;;4.80;100.00;100073.69;4958864;28;20194;-45
2024/01/22 01:56:51;;;;;;;7.53;4.45;;;;;;;4.82;100.00;100071.00;4957743;28;20209;-45
2024/01/22 01:59:17;;;;;;;7.47;4.00;;;;;;;4.81;100.00;100094.03;4955118;28;20206;-46
2024/01/22 02:01:42;;;;;;;7.47;3.85;;;;;;;4.80;100.00;100073.69;4959850;28;20208;-45
2024/01/22 02:04:08;;;;;;;5.78;3.80;;;;;;;4.83;100.00;100086.91;4958559;28;20182;-45
2024/01/22 02:06:33;;;;;;;9.55;4.13;;;;;;;4.89;100.00;100091.16;4954549;28;20233;-45
2024/01/22 02:08:59;;;;;;;6.05;3.80;;;;;;;4.87;100.00;100071.75;4959913;28;20174;-46
2024/01/22 02:11:24;;;;;;;6.85;4.00;;;;;;;4.86;100.00;100070.03;4959425;28;20197;-46
2024/01/22 02:13:50;;;;;;;11.15;4.18;;;;;;;4.86;100.00;100086.81;4958102;28;20631;-47
2024/01/22 02:16:15;;;;;;;10.68;4.28;;;;;;;4.96;100.00;100055.56;4957310;28;20302;-46
2024/01/22 02:18:41;;;;;;;8.23;4.43;;;;;;;4.88;100.00;100052.28;4957842;28;20289;-45
2024/01/22 02:21:07;;;;;;;7.65;4.28;;;;;;;4.85;100.00;100068.25;4962332;28;20224;-45
2024/01/22 02:23:32;;;;;;;7.50;4.00;;;;;;;4.81;100.00;100048.91;4962826;28;20170;-45
2024/01/22 02:25:58;;;;;;;9.63;4.50;;;;;;;4.78;100.00;100074.66;4954837;28;20241;-46
2024/01/22 02:28:23;;;;;;;8.43;4.22;;;;;;;4.75;100.00;100068.50;4955262;28;20213;-46
2024/01/22 02:30:49;;;;;;;7.78;4.28;;;;;;;4.74;100.00;100047.31;4956954;28;20170;-46
2024/01/22 02:33:14;;;;;;;7.38;4.25;;;;;;;4.72;100.00;100052.69;4960419;28;20190;-45
2024/01/22 02:35:40;;;;;;;8.85;4.80;;;;;;;4.69;100.00;100057.19;4954011;28;20209;-45
2024/01/22 02:38:06;;;;;;;8.43;4.13;;;;;;;4.69;100.00;100036.84;4957628;28;20237;-44
2024/01/22 02:40:31;;;;;;;7.85;4.50;;;;;;;4.65;100.00;100035.16;4956775;28;20262;-46
2024/01/22 02:42:57;;;;;;;6.13;4.32;;;;;;;4.65;100.00;100010.44;4966256;28;20191;-46
2024/01/22 02:45:22;;;;;;;7.30;4.60;;;;;;;4.59;100.00;100015.88;4961788;28;20224;-44
2024/01/22 02:47:48;;;;;;;7.47;4.30;;;;;;;4.59;100.00;100008.81;4962967;28;20193;-45
2024/01/22 02:50:13;;;;;;;10.73;4.88;;;;;;;4.59;100.00;99992.00;4973669;28;20218;-46
2024/01/22 02:52:39;;;;;;;6.55;4.55;;;;;;;4.58;100.00;99969.06;4964771;28;20242;-47
2024/01/22 02:55:04;;;;;;;4.63;3.85;;;;;;;4.58;100.00;99991.16;4960593;28;20686;-46
2024/01/22 02:57:30;;;;;;;6.22;4.35;;;;;;;4.58;100.00;99999.13;4962217;28;20648;-45
2024/01/22 02:59:55;;;;;;;7.57;4.65;;;;;;;4.59;100.00;99970.78;4960218;28;20684;-44
2024/01/22 03:02:21;;;;;;;7.20;4.18;;;;;;;4.57;100.00;99962.00;4966272;28;20435;-46
2024/01/22 03:04:46;;;;;;;6.75;4.20;;;;;;;4.52;100.00;99954.19;4963396;28;20230;-44
2024/01/22 03:07:12;;;;;;;12.43;4.38;;;;;;;4.53;100.00;99940.03;4959897;28;20183;-45
2024/01/22 03:09:37;;;;;;;7.75;4.57;;;;;;;4.52;100.00;99962.13;4960142;28;20745;-46
2024/01/22 03:12:03;;;;;;;8.52;4.95;;;;;;;4.53;100.00;99932.06;4963250;28;20186;-45
2024/01/22 03:14:29;;;;;;;11.23;4.38;;;;;;;4.54;100.00;99944.41;4962596;28;20641;-46
2024/01/22 03:16:54;;;;;;;7.68;4.45;;;;;;;4.56;100.00;99936.41;4964630;28;20216;-45
2024/01/22 03:19:19;;;;;;;6.78;3.67;;;;;;;4.58;100.00;99935.44;4963268;28;20559;-45
2024/01/22 03:21:45;;;;;;;10.05;4.65;;;;;;;4.61;100.00;99943.31;4962386;28;20717;-45
2024/01/22 03:24:10;;;;;;;6.15;4.03;;;;;;;4.60;100.00;99925.66;4961190;28;20181;-43
2024/01/22 03:26:36;;;;;;;7.28;4.15;;;;;;;4.61;100.00;99940.66;4959966;28;20227;-45
2024/01/22 03:29:01;;;;;;;6.93;4.43;;;;;;;4.62;100.00;99920.31;4961240;28;20554;-45
2024/01/22 03:31:32;;;;;;;6.35;4.22;;;;;;;4.65;100.00;99923.75;4960801;28;20201;-46
2024/01/22 03:33:58;;;;;;;5.70;4.43;;;;;;;4.65;100.00;99897.22;4963225;28;20187;-44
2024/01/22 03:36:24;;;;;;;7.32;3.92;;;;;;;4.66;100.00;99911.38;4961505;28;20592;-45
2024/01/22 03:38:50;;;;;;;6.47;4.22;;;;;;;4.69;100.00;99890.91;4961948;28;20202;-45
2024/01/22 03:41:16;;;;;;;10.77;5.07;;;;;;;4.66;100.00;99885.69;4961259;28;20182;-45
2024/01/22 03:43:42;;;;;;;8.10;4.15;;;;;;;4.69;100.00;99855.53;4959486;28;20204;-46
2024/01/22 03:46:12;;;;;;;8.60;4.22;;;;;;;4.70;100.00;99854.63;4958720;28;20685;-44
2024/01/22 03:48:37;;;;;;;8.52;4.35;;;;;;;4.71;100.00;99845.75;4961726;28;20194;-45
2024/01/22 03:51:04;;;;;;;7.35;3.85;;;;;;;4.72;100.00;99855.44;4976871;28;20336;-44
2024/01/22 03:53:29;;;;;;;7.68;4.25;;;;;;;4.73;100.00;99849.25;4961411;28;20179;-44
2024/01/22 03:55:54;;;;;;;8.85;4.22;;;;;;;4.73;100.00;99831.53;4961435;28;20672;-44
2024/01/22 03:58:20;;;;;;;6.60;4.10;;;;;;;4.75;100.00;99815.56;4960139;28;20679;-44
2024/01/22 04:00:45;;;;;;;8.25;4.00;;;;;;;4.74;100.00;99827.06;4962335;28;20272;-46
2024/01/22 04:03:11;;;;;;;5.53;4.40;;;;;;;4.79;100.00;99795.09;4960476;28;20192;-46
2024/01/22 04:05:37;;;;;;;8.70;4.72;;;;;;;4.79;100.00;99773.88;4962703;28;20205;-45
2024/01/22 04:08:03;;;;;;;8.18;4.18;;;;;;;4.82;100.00;99784.41;4963042;28;20178;-44
2024/01/22 04:10:29;;;;;;;8.70;3.95;;;;;;;4.87;100.00;99770.06;4960644;28;20190;-44
2024/01/22 04:12:55;;;;;;;6.97;4.53;;;;;;;4.88;100.00;99771.81;4962407;28;20539;-45
2024/01/22 04:15:21;;;;;;;7.53;3.75;;;;;;;4.90;100.00;99759.34;4959444;28;20257;-45
2024/01/22 04:17:46;;;;;;;7.95;4.90;;;;;;;4.91;100.00;99758.41;4960032;28;20190;-46
2024/01/22 04:20:12;;;;;;;4.35;3.72;;;;;;;5.00;100.00;99767.88;4948528;28;20187;-45
2024/01/22 04:22:38;;;;;;;5.97;4.50;;;;;;;4.93;100.00;99769.84;4960143;28;20219;-46
2024/01/22 04:25:04;;;;;;;6.40;4.20;;;;;;;4.97;100.00;99754.72;4961819;28;20209;-45
2024/01/22 04:27:29;;;;;;;6.35;4.07;;;;;;;4.97;100.00;99754.72;4959676;28;20760;-45
2024/01/22 04:29:54;;;;;;;4.72;3.50;;;;;;;4.99;100.00;99744.91;4962733;28;20252;-44
2024/01/22 04:32:20;;;;;;;7.10;4.13;;;;;;;5.02;100.00;99731.53;4960541;28;21146;-45
2024/01/22 04:34:46;;;;;;;6.20;4.15;;;;;;;5.04;100.00;99720.88;4961728;28;20705;-46
2024/01/22 04:37:13;;;;;;;5.60;3.60;;;;;;;5.06;100.00;99719.91;4962592;28;20193;-43
2024/01/22 04:39:39;;;;;;;5.95;4.03;;;;;;;5.09;100.00;99708.31;4959178;28;20198;-45
2024/01/22 04:42:05;;;;;;;5.78;4.18;;;;;;;5.14;100.00;99688.66;4960940;28;20208;-44
2024/01/22 04:44:30;;;;;;;8.75;3.55;;;;;;;5.14;100.00;99677.16;4959898;28;20193;-45
2024/01/22 04:46:57;;;;;;;6.88;4.05;;;;;;;5.11;100.00;99667.50;4958322;28;20198;-45
2024/01/22 04:49:22;;;;;;;8.35;3.70;;;;;;;5.13;100.00;99670.09;4963352;28;20546;-45
2024/01/22 04:51:48;;;;;;;5.45;3.50;;;;;;;5.13;100.00;99654.19;4962629;28;20197;-45
2024/01/22 04:54:13;;;;;;;5.00;3.72;;;;;;;5.16;100.00;99648.78;4961743;28;20214;-44
2024/01/22 04:56:45;;;;;;;6.50;3.72;;;;;;;5.21;100.00;99662.75;4957002;28;20680;-45
2024/01/22 04:59:10;;;;;;;4.32;3.90;;;;;;;5.17;100.00;99634.56;4958117;28;20218;-44
2024/01/22 05:01:36;;;;;;;7.55;3.92;;;;;;;5.24;100.00;99629.91;4959082;28;20229;-44
2024/01/22 05:04:02;;;;;;;5.00;3.47;;;;;;;5.26;100.00;99666.09;4960578;28;20325;-46
2024/01/22 05:06:28;;;;;;;4.85;3.60;;;;;;;5.29;100.00;99639.47;4959157;28;20716;-46
2024/01/22 05:08:54;;;;;;;4.57;3.53;;;;;;;5.31;100.00;99658.84;4964716;28;20171;-43
2024/01/22 05:11:19;;;;;;;6.47;3.55;;;;;;;5.33;100.00;99674.72;4957972;28;20213;-44
2024/01/22 05:13:52;;;;;;;3.40;2.65;;;;;;;5.38;100.00;99659.50;4958962;28;20214;-44
2024/01/22 05:16:19;;;;;;;6.20;3.85;;;;;;;5.40;100.00;99633.75;4955537;28;20264;-45
2024/01/22 05:18:46;;;;;;;5.72;3.38;;;;;;;5.43;100.00;99704.50;4959875;28;20276;-45
2024/01/22 05:21:12;;;;;;;7.10;3.80;;;;;;;5.51;100.00;99644.84;4960341;28;20197;-45
2024/01/22 05:23:39;;;;;;;8.20;3.55;;;;;;;5.51;100.00;99618.28;4961404;28;20650;-45
2024/01/22 05:26:05;;;;;;;9.43;3.60;;;;;;;5.57;100.00;99665.91;4958214;28;20518;-46
2024/01/22 05:28:31;;;;;;;4.20;3.22;;;;;;;5.65;100.00;99644.34;4956373;28;20186;-46
2024/01/22 05:30:56;;;;;;;3.92;3.40;;;;;;;5.69;100.00;99638.00;4960479;28;20209;-45
2024/01/22 05:33:22;;;;;;;3.88;3.50;;;;;;;5.70;100.00;99628.22;4959835;28;20190;-46
2024/01/22 05:35:47;;;;;;;4.40;3.50;;;;;;;5.77;100.00;99624.41;4960028;28;20350;-46
2024/01/22 05:38:13;;;;;;;6.30;3.97;;;;;;;5.80;100.00;99623.44;4960218;28;20208;-45
2024/01/22 05:40:39;;;;;;;5.13;3.53;;;;;;;5.90;100.00;99625.69;4958683;28;20226;-46
2024/01/22 05:43:05;;;;;;;3.63;3.15;;;;;;;5.93;100.00;99598.13;4958910;28;20965;-45
2024/01/22 05:45:31;;;;;;;5.38;3.28;;;;;;;5.96;100.00;99608.66;4957274;28;20214;-46
2024/01/22 05:47:56;;;;;;;3.80;3.50;;;;;;;6.02;100.00;99596.94;4959220;28;20182;-45
2024/01/22 05:50:22;;;;;;;8.80;3.15;;;;;;;6.10;100.00;99578.84;4961811;28;20193;-45
2024/01/22 05:52:47;;;;;;;4.70;3.80;;;;;;;6.17;100.00;99578.56;4957699;28;20670;-45
2024/01/22 05:55:13;;;;;;;5.15;3.03;;;;;;;6.20;100.00;99593.53;4959523;28;20272;-44
2024/01/22 05:57:39;;;;;;;3.58;3.28;;;;;;;6.24;100.00;99588.97;4958021;28;20230;-47
2024/01/22 06:00:09;;;;;;;4.90;3.35;;;;;;;6.23;100.00;99577.47;4961664;28;20557;-45
2024/01/22 06:02:38;;;;;;;5.30;4.07;;;;;;;6.30;100.00;99580.72;4960555;28;20565;-44
2024/01/22 06:05:04;;;;;;;4.43;3.38;;;;;;;6.29;100.00;99576.31;4961298;28;20650;-46
2024/01/22 06:07:29;;;;;;;5.25;3.80;;;;;;;6.32;100.00;99560.22;4962034;28;20190;-46
2024/01/22 06:09:55;;;;;;;4.40;3.83;;;;;;;6.35;100.00;99562.78;4958781;28;20231;-46
2024/01/22 06:12:20;;;;;;;4.18;3.67;;;;;;;6.36;100.00;99564.50;4957255;28;20190;-45
2024/01/22 06:14:46;;;;;;;3.72;3.40;;;;;;;6.44;100.00;99562.41;4961108;28;20213;-46
2024/01/22 06:17:11;;;;;;;5.78;4.38;;;;;;;6.40;100.00;99545.69;4955929;28;20190;-44
2024/01/22 06:19:37;;;;;;;4.75;4.28;;;;;;;6.51;100.00;99542.56;4964278;28;20783;-45
2024/01/22 06:22:03;;;;;;;5.38;4.22;;;;;;;6.59;100.00;99542.25;4958532;28;20676;-45
2024/01/22 06:24:29;;;;;;;4.68;4.25;;;;;;;6.68;100.00;99535.69;4958957;28;20187;-46
2024/01/22 06:26:55;;;;;;;4.28;3.88;;;;;;;6.67;100.00;99523.28;4957216;28;20672;-46
2024/01/22 06:29:20;;;;;;;6.32;4.05;;;;;;;6.73;100.00;99539.84;4960817;28;20189;-45
2024/01/22 06:31:45;;;;;;;5.10;3.80;;;;;;;6.75;100.00;99519.34;4958984;28;20426;-45
2024/01/22 06:34:14;;;;;;;5.78;4.20;;;;;;;6.72;100.00;99518.66;4956510;28;20185;-45
2024/01/22 06:36:39;;;;;;;4.30;3.17;;;;;;;6.79;100.00;99546.72;4955407;28;20237;-45
2024/01/22 06:39:08;;;;;;;4.57;2.92;;;;;;;6.81;100.00;99531.56;4959097;28;20222;-44
2024/01/22 06:41:36;;;;;;;3.58;3.10;;;;;;;6.87;100.00;99498.47;4954772;28;20277;-46
2024/01/22 06:44:02;;;;;;;2.80;2.58;;;;;;;6.90;100.00;99523.16;4958563;28;20332;-45
2024/01/22 06:46:27;;;;;;;3.05;2.78;;;;;;;6.98;100.00;99526.34;4955694;28;20287;-44
2024/01/22 06:48:53;;;;;;;3.15;2.80;;;;;;;7.06;100.00;99517.16;4955848;28;20409;-46
2024/01/22 06:51:18;;;;;;;3.45;3.15;;;;;;;7.00;100.00;99537.81;4955244;28;20396;-46
2024/01/22 06:53:44;;;;;;;3.67;2.90;;;;;;;7.00;100.00;99507.66;4995779;23;20221;-45
2024/01/22 06:56:09;;;;;;;3.67;2.97;;;;;;;7.09;100.00;99515.22;4954289;28;20222;-41
2024/01/22 06:58:35;;;;;;;3.05;2.45;;;;;;;7.08;100.00;99525.94;4958426;28;20232;-43
2024/01/22 07:01:01;;;;;;;3.40;2.80;;;;;;;7.09;100.00;99530.34;4958266;28;20174;-41
2024/01/22 07:03:27;;;;;;;3.15;2.95;;;;;;;7.07;100.00;99540.19;4958559;28;20190;-43
2024/01/22 07:05:52;;;;;;;3.30;3.00;;;;;;;7.07;100.00;99533.06;4957409;28;20272;-43
2024/01/22 07:08:18;;;;;;;3.35;3.00;;;;;;;7.08;100.00;99521.47;4957922;28;20667;-42
2024/01/22 07:10:44;;;;;;;2.90;2.70;;;;;;;7.12;100.00;99532.84;4955467;28;20178;-42
2024/01/22 07:13:09;;;;;;;2.92;2.63;;;;;;;7.07;100.00;99535.72;4940276;28;20186;-43
2024/01/22 07:15:36;;;;;;;3.95;2.70;;;;;;;7.07;100.00;99530.41;4956807;28;20692;-43
2024/01/22 07:18:02;;;;;;;2.83;2.63;;;;;;;7.18;100.00;99530.78;4962908;28;20182;-43
2024/01/22 07:20:28;;;;;;;3.45;3.20;;;;;;;7.16;100.00;99543.31;4964776;28;20190;-43
2024/01/22 07:22:54;;;;;;;3.45;3.08;;;;;;;7.21;100.00;99521.78;4957057;28;20687;-42
2024/01/22 07:25:20;;;;;;;2.88;2.50;;;;;;;7.23;100.00;99515.44;4958732;28;20230;-44
2024/01/22 07:27:46;;;;;;;4.55;3.00;;;;;;;7.28;100.00;99517.94;4957669;28;20224;-41
2024/01/22 07:30:12;;;;;;;2.92;2.72;;;;;;;7.31;100.00;99516.91;4961614;28;20254;-40
2024/01/22 07:32:41;;;;;;;3.20;2.90;;;;;;;7.35;100.00;99514.03;4960753;28;20205;-43
2024/01/22 07:35:09;;;;;;;4.00;3.05;;;;;;;7.35;100.00;99516.69;4959817;28;20217;-43
2024/01/22 07:37:36;;;;;;;3.42;3.10;;;;;;;7.36;100.00;99521.06;4957934;28;20182;-40
2024/01/22 07:40:04;;;;;;;3.38;2.88;;;;;;;7.43;100.00;99524.31;4965177;28;20193;-43
2024/01/22 07:42:36;;;;;;;3.28;2.88;;;;;;;7.46;100.00;99507.34;4958339;28;20193;-40
2024/01/22 07:45:03;;;;;;;2.90;2.70;;;;;;;7.45;100.00;99527.78;4961078;28;20217;-45
2024/01/22 07:47:29;;;;;;;3.78;2.90;;;;;;;7.61;100.00;99503.97;4962028;28;20182;-41
2024/01/22 07:49:55;;;;;;;2.90;2.70;;;;;;;7.61;100.00;99535.94;4961085;28;20678;-41
2024/01/22 07:52:22;;;;;;;4.30;3.90;;;;;;;7.60;100.00;99519.06;4963126;28;20287;-41
2024/01/22 07:54:48;;;;;;;9.20;6.93;;;;;;;7.55;100.00;99505.09;4959821;28;20191;-43
2024/01/22 07:57:14;;;;;;;13.77;12.38;;;;;;;7.55;100.00;99502.44;4964059;28;20318;-43
2024/01/22 07:59:39;;;;;;;13.38;11.50;;;;;;;7.58;100.00;99504.94;4964059;28;20696;-43
2024/01/22 08:02:06;;;;;;;8.10;7.40;;;;;;;7.65;100.00;99513.53;4955768;28;20205;-41
2024/01/22 08:04:32;;;;;;;6.38;5.88;;;;;;;7.68;100.00;99516.06;4962892;28;20637;-44
2024/01/22 08:07:00;;;;;;;4.85;4.05;;;;;;;7.66;100.00;99496.59;4960884;28;20195;-44
2024/01/22 08:09:26;;;;;;;4.18;3.88;;;;;;;7.66;100.00;99523.25;4961231;28;20318;-41
2024/01/22 08:11:52;;;;;;;4.20;3.78;;;;;;;7.66;100.00;99509.94;4960623;28;20638;-44
2024/01/22 08:14:17;;;;;;;3.50;3.20;;;;;;;7.50;100.00;99517.78;4961979;28;20337;-42
2024/01/22 08:16:44;;;;;;;3.53;3.25;;;;;;;7.60;100.00;99512.88;4964913;28;20583;-42
2024/01/22 08:19:10;;;;;;;3.75;3.38;;;;;;;7.66;100.00;99528.59;4965420;28;20202;-42
2024/01/22 08:21:36;;;;;;;3.90;3.55;;;;;;;7.66;100.00;99533.06;4957247;28;20206;-43
2024/01/22 08:24:01;;;;;;;4.07;3.70;;;;;;;7.74;100.00;99505.09;4960615;28;20187;-41
2024/01/22 08:26:27;;;;;;;3.90;3.60;;;;;;;7.79;100.00;99542.22;4963062;28;20214;-42
2024/01/22 08:28:53;;;;;;;4.50;3.28;;;;;;;7.83;100.00;99534.00;4964322;28;20201;-40
2024/01/22 08:31:18;;;;;;;4.10;3.22;;;;;;;7.86;100.00;99524.13;4964464;28;20220;-43
2024/01/22 08:33:44;;;;;;;7.18;3.28;;;;;;;7.92;100.00;99527.34;4960368;28;20185;-41
2024/01/22 08:36:10;;;;;;;3.42;3.00;;;;;;;7.96;100.00;99534.28;4959426;28;20222;-43
2024/01/22 08:38:35;;;;;;;2.97;2.78;;;;;;;7.98;100.00;99523.50;4960621;28;20206;-43
2024/01/22 08:41:03;;;;;;;3.80;2.65;;;;;;;8.00;100.00;99529.63;4959009;28;20666;-42
2024/01/22 08:43:29;;;;;;;5.75;2.95;;;;;;;8.06;100.00;99542.69;4959852;28;20664;-44
2024/01/22 08:45:54;;;;;;;2.80;2.58;;;;;;;8.10;100.00;99532.72;4962622;28;20301;-45
2024/01/22 08:48:20;;;;;;;4.70;2.70;;;;;;;8.08;100.00;99527.47;4961132;28;20536;-43
2024/01/22 08:50:45;;;;;;;3.75;2.75;;;;;;;8.13;100.00;99544.09;4950855;28;20249;-43
2024/01/22 08:53:11;;;;;;;3.97;2.47;;;;;;;8.15;100.00;99546.69;4962785;28;20252;-41
2024/01/22 08:55:37;;;;;;;3.20;2.75;;;;;;;8.14;100.00;99551.19;4960124;28;20218;-44
2024/01/22 08:58:04;;;;;;;3.05;2.28;;;;;;;8.10;100.00;99538.06;4962698;28;20233;-44
2024/01/22 09:00:30;;;;;;;3.78;2.05;;;;;;;8.13;100.00;99559.25;4961759;28;20214;-43
2024/01/22 09:02:55;;;;;;;1.85;1.60;;;;;;;8.18;100.00;99576.78;4962872;28;20632;-43
2024/01/22 09:05:21;;;;;;;2.65;1.50;;;;;;;8.22;100.00;99586.38;4964271;28;20216;-43
2024/01/22 09:07:48;;;;;;;2.72;1.35;;;;;;;8.32;100.00;99593.91;4964211;28;20186;-41
2024/01/22 09:10:14;;;;;;;2.45;1.63;;;;;;;8.37;100.00;99615.88;4958382;28;20232;-44
2024/01/22 09:12:40;;;;;;;2.20;1.27;;;;;;;8.34;100.00;99634.72;4962424;28;20599;-45
2024/01/22 09:15:06;;;;;;;4.32;1.30;;;;;;;8.39;100.00;99614.00;4964440;28;20222;-43
2024/01/22 09:17:33;;;;;;;2.58;1.15;;;;;;;8.37;100.00;99631.91;4960806;28;20569;-44
2024/01/22 09:19:59;;;;;;;5.18;1.17;;;;;;;8.33;100.00;99644.56;4961785;28;20722;-43
2024/01/22 09:22:28;;;;;;;5.18;1.48;;;;;;;8.32;100.00;99655.28;4958775;28;20210;-42
2024/01/22 09:24:54;;;;;;;3.92;1.38;;;;;;;8.30;100.00;99657.16;4961786;28;20708;-45
2024/01/22 09:27:20;;;;;;;2.20;1.00;;;;;;;8.32;100.00;99653.47;4960728;28;20233;-42
2024/01/22 09:29:46;;;;;;;9.57;2.08;;;;;;;8.31;100.00;99662.44;4960895;28;20175;-44
2024/01/22 09:32:11;;;;;;;4.07;1.60;;;;;;;8.38;100.00;99685.22;4958851;28;20179;-43
2024/01/22 09:34:37;;;;;;;5.68;1.58;;;;;;;8.36;100.00;99683.56;4959629;28;20185;-43
2024/01/22 09:37:03;;;;;;;6.75;1.42;;;;;;;8.29;100.00;99677.66;4960570;28;20285;-42
2024/01/22 09:39:30;;;;;;;10.30;1.73;;;;;;;8.22;100.00;99646.84;4961703;28;20244;-43
2024/01/22 09:41:57;;;;;;;11.50;1.60;;;;;;;8.23;100.00;99654.78;4957795;28;20241;-42
2024/01/22 09:44:23;;;;;;;6.88;1.98;;;;;;;8.20;100.00;99673.63;4963065;28;20201;-43
2024/01/22 09:46:49;;;;;;;6.80;1.88;;;;;;;8.21;100.00;99643.31;4958604;28;20622;-44
2024/01/22 09:49:15;;;;;;;8.32;1.88;;;;;;;8.17;100.00;99647.06;4962934;28;20189;-44
2024/01/22 09:51:44;;;;;;;10.00;2.60;;;;;;;8.23;100.00;99660.13;4961217;28;20611;-43
2024/01/22 09:54:20;;;;;;;9.02;2.10;;;;;;;8.24;100.00;99674.31;4963705;28;20209;-44
2024/01/22 09:56:53;;;;;;;9.75;2.28;;;;;;;8.14;100.00;99676.56;4963585;28;20193;-42
2024/01/22 09:59:24;;;;;;;21.73;3.08;;;;;;;8.16;100.00;99661.34;4962677;28;20736;-43
2024/01/22 10:01:51;;;;;;;10.70;2.22;;;;;;;8.19;100.00;99663.00;4960282;28;20221;-41
2024/01/22 10:04:18;;;;;;;20.70;3.67;;;;;;;8.16;100.00;99669.34;4962455;28;20618;-42
2024/01/22 10:06:50;;;;;;;10.45;2.42;;;;;;;8.11;100.00;99666.06;4960672;28;20233;-43
2024/01/22 10:09:17;;;;;;;13.25;3.15;;;;;;;8.08;100.00;99679.50;4958377;28;20257;-43
2024/01/22 10:11:43;;;;;;;17.48;2.90;;;;;;;8.12;100.00;99675.78;4957196;28;20206;-44
2024/01/22 10:14:09;;;;;;;17.00;3.38;;;;;;;8.18;100.00;99699.50;4967849;28;20186;-43
2024/01/22 10:16:38;;;;;;;13.60;3.38;;;;;;;8.21;100.00;99678.00;4960495;28;20207;-44
2024/01/22 10:19:06;;;;;;;20.10;4.03;;;;;;;8.28;100.00;99673.25;4958726;28;20214;-44
2024/01/22 10:21:33;;;;;;;15.68;3.58;;;;;;;8.25;100.00;99681.41;4964159;28;20218;-41
2024/01/22 10:24:08;;;;;;;21.33;3.70;;;;;;;8.26;100.00;99677.78;4961288;28;20181;-44
2024/01/22 10:26:35;;;;;;;19.88;3.72;;;;;;;8.16;100.00;99690.69;4962069;28;20292;-43
2024/01/22 10:29:19;;;;;;;23.67;3.97;;;;;;;8.15;100.00;99683.63;4965072;28;20182;-41
2024/01/22 10:31:54;;;;;;;22.23;3.55;;;;;;;8.27;100.00;99686.69;4972032;28;20578;-42
2024/01/22 10:34:20;;;;;;;15.18;2.88;;;;;;;8.17;100.00;99689.75;4966151;28;20671;-45
2024/01/22 10:37:12;;;;;;;21.88;3.35;;;;;;;8.21;100.00;99687.81;4971710;28;20205;-42
2024/01/22 10:39:39;;;;;;;26.98;4.75;;;;;;;8.08;100.00;99676.84;4970971;28;20193;-43
2024/01/22 10:42:11;;;;;;;19.63;4.38;;;;;;;8.10;100.00;99688.31;4953401;28;20187;-43
2024/01/22 10:44:38;;;;;;;22.85;4.20;;;;;;;8.01;100.00;99683.41;4964638;28;20759;-44
2024/01/22 10:47:04;;;;;;;21.60;4.00;;;;;;;7.95;100.00;99700.53;4971583;28;20201;-43
2024/01/22 10:49:32;;;;;;;20.95;4.03;;;;;;;7.94;100.00;99703.31;4964056;28;20562;-43
2024/01/22 10:52:02;;;;;;;22.23;3.45;;;;;;;7.89;100.00;99716.81;4967930;28;20186;-42
2024/01/22 10:54:28;;;;;;;22.75;3.90;;;;;;;7.94;100.00;99719.31;4975582;28;20217;-43
2024/01/22 10:57:02;;;;;;;21.60;3.88;;;;;;;7.97;100.00;99714.69;4970663;28;20202;-41
2024/01/22 10:59:30;;;;;;;27.77;4.22;;;;;;;7.87;100.00;99726.72;4964822;28;20215;-42
2024/01/22 11:01:58;;;;;;;24.90;4.47;;;;;;;7.86;100.00;99727.63;4970295;28;20192;-44
2024/01/22 11:04:29;;;;;;;26.00;3.88;;;;;;;7.93;100.00;99713.09;4975707;28;20190;-43
2024/01/22 11:07:00;;;;;;;28.73;5.05;;;;;;;7.97;100.00;99713.81;4972581;28;20220;-43
2024/01/22 11:09:31;;;;;;;23.55;4.72;;;;;;;7.93;100.00;99704.22;4980634;28;20174;-43
2024/01/22 11:12:02;;;;;;;25.73;4.38;;;;;;;8.00;100.00;99716.34;4972273;28;20189;-41
2024/01/22 11:14:28;;;;;;;26.98;5.35;;;;;;;7.95;100.00;99699.69;4972565;28;20277;-46
2024/01/22 11:16:54;;;;;;;30.13;5.00;;;;;;;7.91;100.00;99703.44;4971019;28;20252;-41
2024/01/22 11:19:24;;;;;;;24.40;4.65;;;;;;;7.93;100.00;99706.91;4966364;28;20193;-43
2024/01/22 11:21:52;;;;;;;20.08;3.50;;;;;;;7.82;100.00;99705.56;4972277;28;20664;-43
2024/01/22 11:24:22;;;;;;;29.35;4.85;;;;;;;7.80;100.00;99699.44;4968717;28;20181;-44